Time;durP1;ratioP1;P1;durP2;ratioP2;P2;SDS_P1;SDS_P2;PMS_P1;PMS_P2;Temp;Humidity;BMP_temperature;BMP_pressure;BME280_temperature;BME280_humidity;BME280_pressure;Samples;Min_cycle;Max_cycle;Signal;HPM_P1;HPM_P2
2021/05/02 00:00:34;;;;;;;56.95;30.25;;;;;;;5.70;nan;101220.25;5043727;28;20042;-77
2021/05/02 00:03:02;;;;;;;62.90;32.08;;;;;;;5.66;nan;101229.66;5045433;28;20064;-77
2021/05/02 00:05:31;;;;;;;69.18;33.80;;;;;;;5.69;nan;101229.25;5049852;28;20029;-77
2021/05/02 00:07:58;;;;;;;66.28;33.03;;;;;;;5.56;nan;101234.56;5041957;28;20625;-77
2021/05/02 00:10:25;;;;;;;62.92;31.15;;;;;;;5.58;nan;101231.72;5039600;28;20082;-77
2021/05/02 00:12:51;;;;;;;60.50;29.60;;;;;;;5.61;nan;101224.16;5042777;28;20030;-77
2021/05/02 00:15:21;;;;;;;59.65;29.52;;;;;;;5.66;nan;101218.22;5044724;28;20025;-77
2021/05/02 00:17:48;;;;;;;65.15;31.60;;;;;;;5.69;nan;101218.63;5042736;28;20021;-77
2021/05/02 00:20:16;;;;;;;70.22;32.47;;;;;;;5.66;nan;101208.41;5045057;28;20025;-77
2021/05/02 00:22:46;;;;;;;62.05;29.33;;;;;;;5.56;nan;101207.97;5044157;28;20033;-77
2021/05/02 00:25:17;;;;;;;52.33;27.23;;;;;;;5.50;nan;101205.31;5042726;28;20032;-77
2021/05/02 00:27:43;;;;;;;56.40;27.92;;;;;;;5.50;nan;101208.78;5042809;28;20622;-77
2021/05/02 00:30:12;;;;;;;51.35;27.30;;;;;;;5.56;nan;101212.47;5044275;28;20035;-77
2021/05/02 00:32:38;;;;;;;53.75;28.17;;;;;;;5.58;nan;101216.59;5055980;28;20031;-77
2021/05/02 00:35:04;;;;;;;57.70;29.20;;;;;;;5.59;nan;101204.13;5049818;28;20121;-77
2021/05/02 00:37:30;;;;;;;57.05;29.95;;;;;;;5.62;nan;101204.53;5042162;28;20104;-77
2021/05/02 00:39:56;;;;;;;61.63;32.60;;;;;;;5.68;nan;101213.50;5048711;28;20397;-77
2021/05/02 00:42:29;;;;;;;67.03;32.63;;;;;;;5.64;nan;101205.13;5047719;28;20462;-77
2021/05/02 00:45:03;;;;;;;70.30;33.00;;;;;;;5.56;nan;101205.31;5039527;28;21833;-77
2021/05/02 00:48:14;;;;;;;65.63;32.57;;;;;;;5.53;nan;101202.25;5034360;28;20025;-77
2021/05/02 00:50:50;;;;;;;62.75;31.83;;;;;;;5.56;nan;101200.00;5039191;28;20038;-77
2021/05/02 00:53:43;;;;;;;55.60;30.13;;;;;;;5.56;nan;101193.88;5042318;28;20025;-77
2021/05/02 00:56:28;;;;;;;60.65;31.83;;;;;;;5.58;nan;101183.88;5042414;28;20037;-78
2021/05/02 00:58:55;;;;;;;;;;;;;;;5.46;nan;101181.00;5045957;28;20036;-79
2021/05/02 01:01:23;;;;;;;63.35;31.50;;;;;;;5.56;nan;101189.38;5058978;28;19920;-77
2021/05/02 01:03:50;;;;;;;65.68;32.83;;;;;;;5.61;nan;101194.91;5049808;28;20032;-77
2021/05/02 01:06:21;;;;;;;64.45;32.35;;;;;;;5.62;nan;101185.91;5043996;28;20105;-77
2021/05/02 01:08:51;;;;;;;60.65;31.85;;;;;;;5.62;nan;101183.25;5053199;28;20035;-77
2021/05/02 01:11:18;;;;;;;59.10;32.00;;;;;;;5.69;nan;101177.94;5044547;28;20037;-77
2021/05/02 01:13:52;;;;;;;62.10;32.45;;;;;;;5.71;nan;101174.03;5043221;28;20017;-77
2021/05/02 01:16:20;;;;;;;70.57;33.53;;;;;;;5.64;nan;101183.06;5046212;28;20399;-77
2021/05/02 01:18:47;;;;;;;64.80;31.73;;;;;;;5.60;nan;101179.16;5049754;28;20415;-77
2021/05/02 01:21:14;;;;;;;72.15;32.75;;;;;;;5.59;nan;101177.53;5046420;28;20108;-77
2021/05/02 01:23:40;;;;;;;61.85;31.33;;;;;;;5.60;nan;101166.69;5043641;28;20075;-77
2021/05/02 01:26:05;;;;;;;61.15;33.80;;;;;;;5.61;nan;101165.66;5052121;28;20459;-77
2021/05/02 01:28:31;;;;;;;56.30;31.85;;;;;;;5.59;nan;101165.06;5045753;28;20123;-77
2021/05/02 01:30:57;;;;;;;62.08;32.25;;;;;;;5.56;nan;101160.13;5046061;28;20025;-77
2021/05/02 01:33:22;;;;;;;66.57;32.83;;;;;;;5.58;nan;101162.63;5052233;28;20508;-77
2021/05/02 01:35:49;;;;;;;61.65;33.03;;;;;;;5.60;nan;101164.03;5053927;28;20166;-77
2021/05/02 01:38:15;;;;;;;62.97;33.40;;;;;;;5.66;nan;101165.03;5050067;28;20094;-76
2021/05/02 01:40:42;;;;;;;63.65;32.63;;;;;;;5.71;nan;101167.91;5046473;28;20036;-76
2021/05/02 01:43:07;;;;;;;59.25;31.67;;;;;;;5.73;nan;101166.66;5048119;28;20025;-77
2021/05/02 01:45:33;;;;;;;61.05;32.00;;;;;;;5.81;nan;101156.84;5044440;28;20021;-77
2021/05/02 01:48:03;;;;;;;65.85;33.92;;;;;;;5.81;nan;101160.34;5046994;28;20107;-76
2021/05/02 01:50:31;;;;;;;62.67;33.30;;;;;;;5.82;nan;101161.97;5046378;28;20056;-76
2021/05/02 01:52:57;;;;;;;63.03;32.80;;;;;;;5.82;nan;101161.16;5051526;28;20056;-77
2021/05/02 01:55:23;;;;;;;58.95;32.90;;;;;;;5.87;nan;101166.66;5054695;28;20067;-77
2021/05/02 01:57:51;;;;;;;62.72;30.83;;;;;;;5.92;nan;101165.03;5048889;28;20104;-77
2021/05/02 02:00:29;;;;;;;67.20;34.10;;;;;;;5.94;nan;101168.34;5042434;28;20077;-76
2021/05/02 02:03:00;;;;;;;60.20;32.25;;;;;;;6.03;nan;101167.06;5065017;28;20063;-77
2021/05/02 02:05:26;;;;;;;55.17;30.25;;;;;;;6.11;nan;101163.41;5048041;28;20025;-77
2021/05/02 02:07:51;;;;;;;61.72;31.98;;;;;;;6.18;nan;101150.88;5046125;28;20028;-77
2021/05/02 02:10:18;;;;;;;59.35;31.08;;;;;;;6.21;nan;101150.47;5054755;28;20021;-76
2021/05/02 02:12:46;;;;;;;57.17;30.55;;;;;;;6.23;nan;101156.38;5042184;28;20029;-76
2021/05/02 02:15:13;;;;;;;60.78;30.50;;;;;;;6.26;nan;101155.16;5044391;28;20025;-77
2021/05/02 02:17:38;;;;;;;51.67;30.10;;;;;;;6.28;nan;101155.75;5047891;28;20051;-77
2021/05/02 02:20:06;;;;;;;52.78;30.92;;;;;;;6.27;nan;101148.78;5050845;28;20017;-77
2021/05/02 02:22:39;;;;;;;55.92;31.80;;;;;;;6.31;nan;101163.34;5042226;28;20032;-76
2021/05/02 02:25:06;;;;;;;53.00;30.45;;;;;;;6.32;nan;101160.47;5043288;28;20098;-76
2021/05/02 02:27:33;;;;;;;54.20;30.80;;;;;;;6.34;nan;101169.06;5046630;28;20028;-76
2021/05/02 02:30:11;;;;;;;52.40;29.33;;;;;;;6.39;nan;101164.94;5042290;28;20136;-77
2021/05/02 02:32:44;;;;;;;47.78;29.98;;;;;;;6.41;nan;101157.56;5049136;28;20179;-76
2021/05/02 02:35:11;;;;;;;54.22;28.73;;;;;;;6.45;nan;101156.91;5043287;28;20025;-76
2021/05/02 02:37:38;;;;;;;55.13;30.60;;;;;;;6.45;nan;101158.75;5049047;28;20048;-76
2021/05/02 02:40:06;;;;;;;55.15;30.27;;;;;;;6.49;nan;101154.69;5046906;28;20031;-77
2021/05/02 02:42:35;;;;;;;58.55;31.20;;;;;;;6.50;nan;101157.13;5045232;28;20036;-76
2021/05/02 02:45:05;;;;;;;56.33;29.85;;;;;;;6.52;nan;101155.06;5040633;28;20113;-76
2021/05/02 02:47:47;;;;;;;48.00;29.00;;;;;;;6.52;nan;101149.75;5054625;28;20403;-76
2021/05/02 02:50:15;;;;;;;46.53;28.52;;;;;;;6.55;nan;101149.31;5043248;28;20030;-76
2021/05/02 02:52:45;;;;;;;49.53;28.60;;;;;;;6.57;nan;101146.44;5067423;28;21262;-76
2021/05/02 02:55:13;;;;;;;50.03;28.70;;;;;;;6.55;nan;101144.00;5047764;28;20031;-77
2021/05/02 02:57:48;;;;;;;53.83;28.75;;;;;;;6.53;nan;101139.91;5043354;28;20382;-77
2021/05/02 03:00:15;;;;;;;47.85;27.17;;;;;;;6.59;nan;101144.38;5041894;28;20029;-76
2021/05/02 03:02:46;;;;;;;51.50;26.45;;;;;;;6.57;nan;101141.94;5046906;28;20094;-76
2021/05/02 03:05:14;;;;;;;52.03;27.10;;;;;;;6.54;nan;101147.69;5045139;28;20480;-76
2021/05/02 03:07:41;;;;;;;46.65;26.65;;;;;;;6.51;nan;101139.31;5046533;28;20499;-77
2021/05/02 03:10:08;;;;;;;46.60;26.35;;;;;;;6.57;nan;101135.78;5042899;28;20434;-77
2021/05/02 03:12:34;;;;;;;52.28;28.23;;;;;;;6.56;nan;101140.28;5050984;28;20040;-77
2021/05/02 03:15:01;;;;;;;48.15;27.05;;;;;;;6.62;nan;101138.63;5044200;28;20029;-76
2021/05/02 03:17:31;;;;;;;49.45;27.05;;;;;;;6.61;nan;101132.47;5043986;28;20115;-76
2021/05/02 03:20:06;;;;;;;46.22;25.73;;;;;;;6.62;nan;101133.28;5040473;28;20021;-77
2021/05/02 03:22:40;;;;;;;49.47;28.02;;;;;;;6.61;nan;101135.16;5047634;28;20108;-77
2021/05/02 03:25:11;;;;;;;46.65;25.92;;;;;;;6.66;nan;101134.53;5038657;28;20123;-76
2021/05/02 03:27:43;;;;;;;45.08;24.70;;;;;;;6.68;nan;101131.66;5043815;28;20028;-76
2021/05/02 03:30:10;;;;;;;47.10;25.33;;;;;;;6.72;nan;101123.00;5040863;28;20045;-76
2021/05/02 03:32:37;;;;;;;45.83;24.73;;;;;;;6.76;nan;101121.56;5053601;28;20037;-76
2021/05/02 03:35:07;;;;;;;46.03;25.08;;;;;;;6.79;nan;101114.97;5045377;28;20506;-76
2021/05/02 03:37:34;;;;;;;49.13;26.50;;;;;;;6.81;nan;101111.06;5044372;28;20442;-77
2021/05/02 03:40:01;;;;;;;47.25;26.20;;;;;;;6.85;nan;101117.63;5040937;28;20500;-76
2021/05/02 03:42:27;;;;;;;50.30;26.00;;;;;;;6.84;nan;101118.66;5043565;28;20021;-77
2021/05/02 03:44:53;;;;;;;44.65;25.33;;;;;;;6.84;nan;101116.00;5047613;28;20032;-77
2021/05/02 03:47:18;;;;;;;52.75;27.48;;;;;;;6.83;nan;101114.34;5045079;28;20026;-77
2021/05/02 03:49:44;;;;;;;58.67;28.08;;;;;;;6.84;nan;101109.84;5052588;28;20070;-77
2021/05/02 03:52:13;;;;;;;42.67;23.95;;;;;;;6.87;nan;101112.06;5046307;28;20036;-77
2021/05/02 03:54:38;;;;;;;44.13;25.38;;;;;;;6.84;nan;101110.66;5045945;28;20809;-76
2021/05/02 03:57:04;;;;;;;43.55;24.85;;;;;;;6.86;nan;101107.78;5041082;28;20036;-77
2021/05/02 03:59:30;;;;;;;40.65;24.00;;;;;;;6.86;nan;101108.59;5046633;28;20017;-77
2021/05/02 04:01:58;;;;;;;46.15;24.40;;;;;;;6.88;nan;101116.38;5047773;28;20032;-77
2021/05/02 04:04:26;;;;;;;41.45;24.15;;;;;;;6.90;nan;101115.13;5037343;28;20044;-77
2021/05/02 04:06:56;;;;;;;43.15;23.70;;;;;;;6.93;nan;101108.53;5045561;28;20059;-76
2021/05/02 04:09:21;;;;;;;37.05;22.77;;;;;;;6.95;nan;101106.47;5049796;28;20025;-76
2021/05/02 04:11:47;;;;;;;44.88;23.58;;;;;;;6.95;nan;101109.97;5046128;28;20025;-76
2021/05/02 04:14:15;;;;;;;41.33;23.20;;;;;;;6.97;nan;101099.09;5042338;28;20029;-77
2021/05/02 04:16:41;;;;;;;37.95;22.73;;;;;;;7.00;nan;101109.31;5051533;28;20394;-76
2021/05/02 04:19:08;;;;;;;41.53;22.85;;;;;;;6.98;nan;101109.53;5046084;28;20021;-77
2021/05/02 04:21:36;;;;;;;33.97;20.85;;;;;;;7.00;nan;101111.16;5046243;28;20166;-76
2021/05/02 04:24:02;;;;;;;37.20;21.65;;;;;;;7.00;nan;101113.81;5047958;28;20029;-77
2021/05/02 04:26:28;;;;;;;37.80;21.95;;;;;;;7.02;nan;101111.78;5046894;28;20035;-77
2021/05/02 04:28:53;;;;;;;33.25;20.75;;;;;;;7.06;nan;101110.31;5049356;28;20367;-77
2021/05/02 04:31:19;;;;;;;36.47;21.15;;;;;;;7.07;nan;101110.09;5047033;28;20051;-76
2021/05/02 04:33:45;;;;;;;36.40;21.83;;;;;;;7.09;nan;101109.88;5044827;28;20056;-77
2021/05/02 04:36:11;;;;;;;36.25;22.00;;;;;;;7.09;nan;101108.03;5049928;28;20035;-76
2021/05/02 04:38:36;;;;;;;35.30;20.58;;;;;;;7.10;nan;101111.50;5048947;28;20033;-77
2021/05/02 04:41:03;;;;;;;36.40;21.38;;;;;;;7.12;nan;101112.91;5056205;28;20020;-77
2021/05/02 04:43:28;;;;;;;35.15;20.50;;;;;;;7.13;nan;101103.88;5049715;28;20029;-77
2021/05/02 04:45:54;;;;;;;31.25;19.25;;;;;;;7.16;nan;101102.63;5046592;28;20032;-77
2021/05/02 04:48:20;;;;;;;34.85;20.63;;;;;;;7.16;nan;101113.28;5047459;28;20463;-77
2021/05/02 04:50:46;;;;;;;36.85;21.52;;;;;;;7.17;nan;101112.25;5049757;28;20109;-77
2021/05/02 04:53:11;;;;;;;32.58;20.30;;;;;;;7.18;nan;101111.22;5052038;28;20032;-78
2021/05/02 04:55:37;;;;;;;33.08;19.02;;;;;;;7.22;nan;101113.25;5049599;28;20028;-78
2021/05/02 04:58:02;;;;;;;32.10;19.42;;;;;;;7.20;nan;101111.84;5044716;28;20039;-78
2021/05/02 05:00:28;;;;;;;30.45;18.83;;;;;;;7.24;nan;101115.72;5045454;28;20013;-78
2021/05/02 05:02:58;;;;;;;32.63;18.13;;;;;;;7.24;nan;101121.03;5047244;28;20063;-78
2021/05/02 05:05:23;;;;;;;33.33;18.42;;;;;;;7.25;nan;101106.69;5048020;28;20357;-78
2021/05/02 05:07:50;;;;;;;30.00;18.40;;;;;;;7.21;nan;101102.81;5046720;28;20044;-78
2021/05/02 05:10:15;;;;;;;28.02;17.45;;;;;;;7.26;nan;101101.13;5047340;28;20060;-78
2021/05/02 05:12:41;;;;;;;32.42;21.05;;;;;;;7.28;nan;101106.25;5043921;28;20154;-78
2021/05/02 05:15:08;;;;;;;33.90;20.55;;;;;;;7.21;nan;101100.16;5052657;28;20054;-78
2021/05/02 05:17:33;;;;;;;32.40;20.05;;;;;;;7.18;nan;101097.91;5051604;28;20688;-78
2021/05/02 05:19:59;;;;;;;29.58;18.80;;;;;;;7.21;nan;101098.31;5043272;28;20100;-78
2021/05/02 05:22:25;;;;;;;29.38;18.20;;;;;;;7.21;nan;101094.84;5048598;28;20036;-78
2021/05/02 05:24:51;;;;;;;32.80;18.15;;;;;;;7.24;nan;101094.38;5048095;28;20021;-77
2021/05/02 05:27:17;;;;;;;29.08;16.88;;;;;;;7.25;nan;101094.16;5047809;28;20035;-78
2021/05/02 05:29:42;;;;;;;29.33;18.25;;;;;;;7.22;nan;101096.47;5043118;28;20032;-78
2021/05/02 05:32:08;;;;;;;28.95;18.70;;;;;;;7.27;nan;101092.09;5050856;28;20052;-78
2021/05/02 05:34:33;;;;;;;30.77;18.60;;;;;;;7.27;nan;101093.94;5052699;28;20075;-78
2021/05/02 05:36:59;;;;;;;29.33;16.83;;;;;;;7.33;nan;101092.25;5051892;28;20052;-78
2021/05/02 05:39:25;;;;;;;31.38;18.70;;;;;;;7.35;nan;101093.66;5044706;28;20036;-78
2021/05/02 05:41:51;;;;;;;32.05;19.27;;;;;;;7.38;nan;101089.78;5048273;28;20033;-78
2021/05/02 05:44:17;;;;;;;30.15;19.10;;;;;;;7.40;nan;101085.84;5045661;28;20295;-78
2021/05/02 05:46:43;;;;;;;29.25;18.13;;;;;;;7.44;nan;101091.56;5045419;28;20033;-78
2021/05/02 05:49:08;;;;;;;32.70;19.75;;;;;;;7.44;nan;101089.69;5064338;28;20447;-77
2021/05/02 05:51:34;;;;;;;27.15;17.38;;;;;;;7.46;nan;101092.16;5045453;28;20719;-78
2021/05/02 05:54:00;;;;;;;27.05;16.80;;;;;;;7.46;nan;101076.16;5050775;28;20033;-78
2021/05/02 05:56:26;;;;;;;29.40;17.88;;;;;;;7.45;nan;101091.34;5051810;28;20124;-78
2021/05/02 05:58:51;;;;;;;29.42;17.73;;;;;;;7.49;nan;101087.19;5040256;28;20100;-78
2021/05/02 06:01:17;;;;;;;27.77;16.42;;;;;;;7.48;nan;101095.41;5051668;28;20071;-78
2021/05/02 06:03:42;;;;;;;31.45;19.23;;;;;;;7.51;nan;101098.44;5046062;28;22680;-78
2021/05/02 06:06:08;;;;;;;23.98;16.30;;;;;;;7.48;nan;101093.56;5047981;28;20091;-78
2021/05/02 06:08:33;;;;;;;27.50;15.95;;;;;;;7.54;nan;101095.38;5046838;28;20024;-78
2021/05/02 06:10:59;;;;;;;25.20;15.52;;;;;;;7.54;nan;101095.38;5045343;28;20564;-78
2021/05/02 06:13:24;;;;;;;24.83;15.65;;;;;;;7.57;nan;101102.91;5042521;28;20033;-77
2021/05/02 06:15:50;;;;;;;23.63;15.55;;;;;;;7.63;nan;101103.06;5057842;28;20029;-77
2021/05/02 06:18:16;;;;;;;25.73;16.45;;;;;;;7.68;nan;101095.22;5046681;28;20094;-77
2021/05/02 06:20:41;;;;;;;25.65;15.75;;;;;;;7.72;nan;101105.25;5047524;28;20021;-77
2021/05/02 06:23:07;;;;;;;25.85;16.95;;;;;;;7.78;nan;101107.03;5041414;28;20029;-77
2021/05/02 06:25:32;;;;;;;24.75;16.08;;;;;;;7.82;nan;101110.06;5041563;28;20040;-77
2021/05/02 06:27:59;;;;;;;24.70;15.55;;;;;;;7.87;nan;101118.22;5045227;28;20728;-77
2021/05/02 06:30:25;;;;;;;26.55;16.77;;;;;;;7.91;nan;101116.75;5044297;28;20253;-76
2021/05/02 06:32:51;;;;;;;25.38;15.20;;;;;;;7.93;nan;101125.34;5044823;28;20521;-77
2021/05/02 06:35:16;;;;;;;25.17;16.17;;;;;;;7.93;nan;101125.34;5048305;28;20029;-77
2021/05/02 06:37:42;;;;;;;23.00;14.43;;;;;;;7.85;nan;101129.09;5040849;28;20121;-77
2021/05/02 06:40:08;;;;;;;25.70;15.55;;;;;;;7.85;nan;101138.97;5048422;28;20021;-79
2021/05/02 06:42:33;;;;;;;26.52;15.50;;;;;;;7.83;nan;101141.03;5049032;28;20427;-78
2021/05/02 06:44:59;;;;;;;26.23;15.60;;;;;;;7.80;nan;101141.47;5049638;28;20020;-79
2021/05/02 06:47:25;;;;;;;23.98;15.90;;;;;;;7.82;nan;101142.06;5053208;28;20086;-79
2021/05/02 06:49:51;;;;;;;28.60;15.75;;;;;;;7.84;nan;101142.66;5047387;28;20041;-78
2021/05/02 06:52:16;;;;;;;24.02;15.63;;;;;;;7.89;nan;101145.47;5047544;28;20021;-78
2021/05/02 06:54:42;;;;;;;27.58;16.58;;;;;;;7.91;nan;101143.44;5047195;28;20455;-78
2021/05/02 06:57:08;;;;;;;24.70;15.15;;;;;;;7.91;nan;101145.28;5042813;28;20029;-78
2021/05/02 06:59:34;;;;;;;27.40;15.98;;;;;;;7.96;nan;101156.09;5045785;28;20045;-78
2021/05/02 07:01:59;;;;;;;25.20;15.55;;;;;;;8.02;nan;101152.53;5048675;28;20526;-78
2021/05/02 07:04:26;;;;;;;23.83;15.00;;;;;;;8.04;nan;101159.28;5047167;28;20418;-78
2021/05/02 07:06:52;;;;;;;21.40;14.43;;;;;;;7.98;nan;101162.84;5049105;28;20051;-78
2021/05/02 07:09:17;;;;;;;22.30;14.48;;;;;;;7.99;nan;101161.81;5048708;28;20057;-78
2021/05/02 07:11:43;;;;;;;25.25;15.00;;;;;;;8.02;nan;101169.38;5047137;28;20025;-78
2021/05/02 07:14:08;;;;;;;19.88;13.95;;;;;;;8.03;nan;101176.34;5059528;28;20028;-79
2021/05/02 07:16:34;;;;;;;21.77;14.93;;;;;;;8.04;nan;101172.63;5048841;28;20108;-78
2021/05/02 07:19:00;;;;;;;22.92;15.63;;;;;;;8.05;nan;101173.44;5051196;28;20045;-78
2021/05/02 07:21:25;;;;;;;22.15;14.80;;;;;;;8.02;nan;101172.03;5047477;28;22048;-78
2021/05/02 07:23:52;;;;;;;28.23;15.70;;;;;;;8.05;nan;101179.59;5049878;28;20036;-78
2021/05/02 07:26:20;;;;;;;26.70;16.50;;;;;;;8.07;nan;101180.19;5049085;28;20554;-78
2021/05/02 07:28:46;;;;;;;26.63;16.88;;;;;;;8.17;nan;101179.69;5066817;28;20055;-79
2021/05/02 07:31:12;;;;;;;25.77;17.70;;;;;;;8.22;nan;101177.16;5048788;28;20490;-78
2021/05/02 07:33:40;;;;;;;24.88;16.08;;;;;;;8.28;nan;101186.16;5044673;28;20024;-78
2021/05/02 07:36:06;;;;;;;26.42;16.38;;;;;;;8.29;nan;101185.13;5046844;28;20025;-77
2021/05/02 07:38:32;;;;;;;23.65;15.27;;;;;;;8.33;nan;101191.66;5045905;28;20024;-78
2021/05/02 07:40:58;;;;;;;20.35;13.63;;;;;;;8.32;nan;101187.34;5044618;28;20039;-78
2021/05/02 07:43:24;;;;;;;21.92;13.57;;;;;;;8.34;nan;101191.44;5046860;28;20036;-78
2021/05/02 07:45:50;;;;;;;22.33;15.45;;;;;;;8.32;nan;101198.03;5050230;28;20036;-78
2021/05/02 07:48:16;;;;;;;21.98;14.98;;;;;;;8.37;nan;101190.19;5046364;28;20017;-78
2021/05/02 07:50:42;;;;;;;22.63;15.00;;;;;;;8.42;nan;101199.16;5044799;28;20392;-78
2021/05/02 07:53:07;;;;;;;25.00;15.70;;;;;;;8.38;nan;101197.16;5044042;28;20044;-78
2021/05/02 07:55:33;;;;;;;25.65;15.45;;;;;;;8.48;nan;101198.28;5046688;28;20025;-78
2021/05/02 07:58:00;;;;;;;23.15;14.23;;;;;;;8.56;nan;101194.47;5043354;28;20017;-78
2021/05/02 08:00:25;;;;;;;21.20;14.55;;;;;;;8.64;nan;101194.19;5047936;28;20028;-78
2021/05/02 08:02:51;;;;;;;22.73;15.23;;;;;;;8.69;nan;101193.50;5042638;28;20028;-78
2021/05/02 08:05:17;;;;;;;31.08;19.65;;;;;;;8.73;nan;101187.50;5046826;28;20050;-79
2021/05/02 08:07:43;;;;;;;29.33;18.55;;;;;;;8.77;nan;101191.34;5047010;28;20040;-78
2021/05/02 08:10:09;;;;;;;25.15;16.25;;;;;;;8.78;nan;101189.47;5049013;28;20017;-78
2021/05/02 08:12:35;;;;;;;20.42;14.45;;;;;;;8.83;nan;101194.97;5047331;28;20021;-78
2021/05/02 08:15:01;;;;;;;22.92;15.20;;;;;;;8.84;nan;101196.63;5047011;28;20052;-78
2021/05/02 08:17:26;;;;;;;23.17;15.32;;;;;;;8.76;nan;101195.06;5048812;28;20025;-78
2021/05/02 08:19:52;;;;;;;26.13;14.40;;;;;;;8.74;nan;101193.66;5051173;28;20104;-78
2021/05/02 08:22:18;;;;;;;20.58;13.68;;;;;;;8.87;nan;101192.66;5048309;28;20037;-81
2021/05/02 08:24:45;;;;;;;24.27;13.77;;;;;;;8.92;nan;101193.63;5047684;28;20033;-82
2021/05/02 08:27:11;;;;;;;22.27;14.48;;;;;;;8.99;nan;101189.00;5049379;28;20048;-81
2021/05/02 08:29:36;;;;;;;20.00;13.35;;;;;;;8.96;nan;101193.97;5060701;28;20135;-80
2021/05/02 08:32:02;;;;;;;21.40;13.85;;;;;;;8.99;nan;101193.53;5045095;28;20108;-79
2021/05/02 08:34:28;;;;;;;19.50;13.90;;;;;;;9.10;nan;101190.09;5043668;28;20037;-79
2021/05/02 08:36:54;;;;;;;24.20;14.10;;;;;;;9.11;nan;101191.72;5047535;28;20043;-79
2021/05/02 08:39:20;;;;;;;21.88;13.55;;;;;;;9.15;nan;101190.22;5040609;28;20035;-80
2021/05/02 08:41:46;;;;;;;21.00;14.30;;;;;;;9.20;nan;101187.69;5043260;28;20020;-80
2021/05/02 08:44:11;;;;;;;20.98;13.55;;;;;;;9.26;nan;101186.75;5043631;28;20032;-81
2021/05/02 08:46:37;;;;;;;23.60;16.20;;;;;;;9.22;nan;101198.97;5041274;28;20074;-80
2021/05/02 08:49:04;;;;;;;23.83;14.80;;;;;;;9.24;nan;101196.06;5043066;28;20026;-79
2021/05/02 08:51:29;;;;;;;22.20;13.73;;;;;;;9.32;nan;101188.50;5045457;28;20475;-80
2021/05/02 08:53:56;;;;;;;22.42;13.55;;;;;;;9.39;nan;101189.25;5046491;28;20090;-80
2021/05/02 08:56:21;;;;;;;22.38;14.43;;;;;;;9.46;nan;101183.78;5044870;28;20093;-80
2021/05/02 08:58:47;;;;;;;19.42;13.57;;;;;;;9.47;nan;101181.94;5039389;28;20025;-80
2021/05/02 09:01:12;;;;;;;21.08;13.10;;;;;;;9.47;nan;101177.38;5047069;28;20109;-80
2021/05/02 09:03:47;;;;;;;18.38;12.65;;;;;;;9.44;nan;101179.72;5050165;28;20091;-80
2021/05/02 09:06:24;;;;;;;17.73;13.43;;;;;;;9.62;nan;101179.63;5041716;28;20120;-81
2021/05/02 09:08:51;;;;;;;19.88;12.77;;;;;;;9.65;nan;101184.50;5047188;28;20030;-80
2021/05/02 09:11:29;;;;;;;21.05;13.05;;;;;;;9.47;nan;101180.06;5043016;28;20090;-81
2021/05/02 09:13:55;;;;;;;21.20;14.02;;;;;;;9.63;nan;101176.72;5043219;28;20094;-80
2021/05/02 09:16:21;;;;;;;20.98;13.27;;;;;;;9.62;nan;101172.41;5043044;28;20025;-81
2021/05/02 09:18:49;;;;;;;22.55;13.85;;;;;;;9.61;nan;101170.78;5051575;28;20028;-80
2021/05/02 09:21:31;;;;;;;20.05;13.52;;;;;;;9.71;nan;101178.25;5050357;28;20036;-80
2021/05/02 09:24:00;;;;;;;17.60;12.27;;;;;;;9.89;nan;101174.66;5047903;28;20040;-81
2021/05/02 09:26:35;;;;;;;16.85;12.98;;;;;;;9.89;nan;101172.78;5053724;28;20155;-80
2021/05/02 09:29:05;;;;;;;20.70;12.90;;;;;;;9.88;nan;101170.34;5065554;28;20416;-80
2021/05/02 09:31:33;;;;;;;17.95;12.32;;;;;;;9.89;nan;101177.34;5046732;28;20021;-80
2021/05/02 09:34:19;;;;;;;19.98;13.00;;;;;;;9.84;nan;101180.69;5044955;28;20029;-80
2021/05/02 09:36:57;;;;;;;;;;;;;;;9.87;nan;101177.53;5050839;28;20082;-81
2021/05/02 09:39:50;;;;;;;21.17;13.50;;;;;;;10.05;nan;101184.63;5044513;28;19913;-81
2021/05/02 09:42:24;;;;;;;20.02;12.70;;;;;;;10.14;nan;101174.41;5061184;28;20067;-80
2021/05/02 09:44:55;;;;;;;20.47;12.60;;;;;;;10.13;nan;101178.13;5036765;28;20075;-80
2021/05/02 09:47:41;;;;;;;17.75;13.25;;;;;;;9.99;nan;101183.72;5047346;28;20028;-81
2021/05/02 09:50:23;;;;;;;22.30;13.07;;;;;;;10.00;nan;101179.16;5059768;28;20562;-79
2021/05/02 09:52:53;;;;;;;18.95;13.63;;;;;;;10.18;nan;101188.94;5050030;28;21988;-79
2021/05/02 09:55:22;;;;;;;22.38;13.63;;;;;;;10.24;nan;101191.53;5047881;28;20021;-79
2021/05/02 09:58:08;;;;;;;20.73;12.80;;;;;;;10.15;nan;101192.09;5047650;28;20020;-79
2021/05/02 10:00:59;;;;;;;21.08;12.35;;;;;;;10.25;nan;101189.69;5052708;28;20045;-78
2021/05/02 10:03:26;;;;;;;20.73;13.23;;;;;;;10.35;nan;101192.56;5052421;28;20043;-79
2021/05/02 10:05:59;;;;;;;20.33;12.77;;;;;;;10.49;nan;101193.13;5048494;28;20093;-79
2021/05/02 10:08:27;;;;;;;21.38;12.95;;;;;;;10.39;nan;101191.03;5045118;28;20114;-78
2021/05/02 10:10:54;;;;;;;22.25;14.32;;;;;;;10.29;nan;101196.19;5057558;28;20513;-79
2021/05/02 10:13:20;;;;;;;20.88;13.13;;;;;;;10.44;nan;101191.16;5042273;28;20033;-78
2021/05/02 10:15:46;;;;;;;18.83;12.57;;;;;;;10.47;nan;101190.69;5048607;28;20029;-78
2021/05/02 10:18:12;;;;;;;20.98;12.93;;;;;;;10.47;nan;101190.69;5050563;28;20483;-79
2021/05/02 10:20:37;;;;;;;19.88;13.73;;;;;;;10.53;nan;101199.63;5048588;28;20033;-79
2021/05/02 10:23:03;;;;;;;21.75;13.05;;;;;;;10.56;nan;101199.97;5049924;28;20403;-80
2021/05/02 10:25:29;;;;;;;17.90;12.32;;;;;;;10.67;nan;101192.97;5054603;28;20032;-78
2021/05/02 10:27:55;;;;;;;21.65;13.60;;;;;;;10.80;nan;101202.59;5046116;28;20040;-78
2021/05/02 10:30:33;;;;;;;20.10;13.80;;;;;;;10.90;nan;101198.22;5045040;28;20045;-78
2021/05/02 10:33:05;;;;;;;25.30;14.18;;;;;;;11.03;nan;101204.38;5042414;28;20040;-78
2021/05/02 10:36:04;;;;;;;21.50;13.68;;;;;;;11.02;nan;101200.88;5040005;28;20118;-78
2021/05/02 10:38:52;;;;;;;20.90;13.07;;;;;;;11.10;nan;101203.16;5028000;28;20047;-78
2021/05/02 10:41:35;;;;;;;21.50;14.00;;;;;;;11.05;nan;101202.25;5032624;28;20442;-78
2021/05/02 10:44:05;;;;;;;18.85;13.38;;;;;;;11.17;nan;101200.34;5040580;28;20115;-78
2021/05/02 10:46:58;;;;;;;18.92;12.85;;;;;;;11.22;nan;101203.13;5041493;28;20033;-78
2021/05/02 10:49:24;;;;;;;20.90;13.98;;;;;;;11.32;nan;101197.94;5037998;28;20119;-78
2021/05/02 10:51:53;;;;;;;22.05;14.15;;;;;;;11.52;nan;101202.03;5038914;28;20129;-78
2021/05/02 10:54:21;;;;;;;22.38;12.80;;;;;;;11.61;nan;101201.38;5041031;28;20025;-79
2021/05/02 10:56:58;;;;;;;18.60;13.40;;;;;;;11.72;nan;101192.44;5037539;28;20178;-78
2021/05/02 10:59:46;;;;;;;22.70;13.90;;;;;;;11.59;nan;101191.94;5041203;28;20028;-78
2021/05/02 11:02:45;;;;;;;20.13;13.40;;;;;;;11.62;nan;101189.56;5041287;28;20029;-78
2021/05/02 11:05:16;;;;;;;20.00;12.60;;;;;;;11.52;nan;101193.97;4999268;28;20048;-78
2021/05/02 11:07:47;;;;;;;19.92;13.35;;;;;;;11.71;nan;101206.09;5040131;28;20032;-78
2021/05/02 11:10:17;;;;;;;21.20;14.07;;;;;;;11.34;nan;101201.19;5039067;28;20025;-79
2021/05/02 11:12:46;;;;;;;19.20;12.48;;;;;;;11.59;nan;101200.78;5045389;28;20033;-78
2021/05/02 11:15:27;;;;;;;20.70;13.00;;;;;;;11.88;nan;101208.81;5041234;28;20028;-78
2021/05/02 11:17:54;;;;;;;19.80;12.75;;;;;;;11.99;nan;101210.56;5053925;28;20481;-78
2021/05/02 11:20:45;;;;;;;17.08;11.90;;;;;;;12.13;nan;101203.00;5043615;28;20483;-78
2021/05/02 11:23:11;;;;;;;20.58;12.60;;;;;;;12.13;nan;101198.44;5046926;28;20043;-78
2021/05/02 11:25:40;;;;;;;17.88;11.95;;;;;;;12.31;nan;101205.38;5048071;28;20406;-78
2021/05/02 11:28:10;;;;;;;16.65;11.85;;;;;;;11.95;nan;101206.75;5043704;28;20135;-78
2021/05/02 11:30:45;;;;;;;16.08;11.32;;;;;;;12.23;nan;101201.28;5060346;28;20021;-78
2021/05/02 11:33:31;;;;;;;14.07;10.77;;;;;;;12.41;nan;101205.53;5042447;28;20059;-79
2021/05/02 11:35:57;;;;;;;13.50;10.63;;;;;;;12.21;nan;101199.88;5042433;28;20038;-79
2021/05/02 11:38:35;;;;;;;15.88;11.70;;;;;;;12.38;nan;101211.38;5044836;28;20033;-79